CSH3 weather

Calgary/South Health Campus Hospital Helipad
Calgary, Alberta, Canada

Public forecast

Using degrees Celsius for public forecast. Weather courtesy of forecast.io.

Closest aviation weather report (METAR) to Calgary/South Health Campus Hospital Helipad

Closest report is Calgary International Airport, 14.1 nm (26.1 km) N. Retrieved 2019/12/08 07:00 UTC (42 minutes ago):

CYYC 080700Z 06009KT 2 1/2SM -SN OVC005 M10/M12 A2983 RMK ST8 SLP171

Closest aviation forecast (TAF) to Calgary/South Health Campus Hospital Helipad

Closest forecast is Calgary International Airport, 14.1 nm (26.1 km) N. Retrieved 2019/12/08 09:42 UTC (0 seconds ago):

TAF CYYC 080839Z 0809/0906 06010KT 3/4SM -SN OVC003 TEMPO 0809/0812 3SM -SN OVC010 FM081200 VRB03KT P6SM SCT006 BKN040 TEMPO 0812/0816 4SM -SN BKN006 OVC040 FM081600 22006KT P6SM FEW040 BECMG 0822/0824 30010KT FM090300 28010KT P6SM BKN060 OVC120 RMK NXT FCST BY 081200Z